Time,TemperatureF,DewpointF,PressureIn,WindDirection,WindDirectionDegrees,WindSpeedMPH,WindSpeedGustMPH,Humidity,HourlyPrecipIn,Conditions,Clouds,dailyrainin,SoftwareType,DateUTC
2013-06-11 00:02:00,63.7,60.1,29.83,West,262,0.0,0.0,88,0.00,,,0.00,Wunderground v.1.15,2013-06-11 05:02:00,
2013-06-11 00:08:00,63.5,59.9,29.84,West,262,0.0,0.0,88,0.00,,,0.00,Wunderground v.1.15,2013-06-11 05:08:00,
2013-06-11 00:14:00,63.4,60.1,29.84,West,262,0.0,0.0,89,0.00,,,0.00,Wunderground v.1.15,2013-06-11 05:14:00,
2013-06-11 00:20:00,63.3,60.0,29.84,West,262,0.0,0.0,89,0.00,,,0.00,Wunderground v.1.15,2013-06-11 05:20:00,
2013-06-11 00:26:00,63.2,59.9,29.84,West,262,0.0,0.0,89,0.00,,,0.00,Wunderground v.1.15,2013-06-11 05:26:00,
2013-06-11 00:32:00,63.5,59.9,29.84,West,262,0.0,0.0,88,0.00,,,0.00,Wunderground v.1.15,2013-06-11 05:32:00,
2013-06-11 00:38:00,63.6,60.0,29.84,West,262,0.0,0.0,88,0.00,,,0.00,Wunderground v.1.15,2013-06-11 05:38:00,
2013-06-11 00:44:00,63.4,59.8,29.84,West,262,0.0,0.0,88,0.00,,,0.00,Wunderground v.1.15,2013-06-11 05:44:00,
2013-06-11 00:50:00,63.2,59.6,29.85,West,262,0.0,0.0,88,0.00,,,0.00,Wunderground v.1.15,2013-06-11 05:50:00,
2013-06-11 00:58:00,62.9,59.3,29.85,West,262,0.0,0.0,88,0.00,,,0.00,Wunderground v.1.15,2013-06-11 05:58:00,
2013-06-11 01:04:00,62.9,59.6,29.85,West,262,0.0,0.0,89,0.00,,,0.00,Wunderground v.1.15,2013-06-11 06:04:00,
2013-06-11 01:10:00,62.8,59.5,29.85,West,262,0.0,0.0,89,0.00,,,0.00,Wunderground v.1.15,2013-06-11 06:10:00,
2013-06-11 01:16:00,62.8,59.5,29.85,West,262,0.0,0.0,89,0.00,,,0.00,Wunderground v.1.15,2013-06-11 06:16:00,
2013-06-11 01:22:00,62.7,59.4,29.85,West,262,0.0,0.0,89,0.00,,,0.00,Wunderground v.1.15,2013-06-11 06:22:00,
2013-06-11 01:28:00,62.5,59.2,29.85,West,262,0.0,0.0,89,0.00,,,0.00,Wunderground v.1.15,2013-06-11 06:28:00,
2013-06-11 01:34:00,62.3,59.0,29.85,West,262,0.0,1.0,89,0.00,,,0.00,Wunderground v.1.15,2013-06-11 06:34:00,
2013-06-11 01:40:00,62.2,59.2,29.84,West,262,0.0,1.0,90,0.00,,,0.00,Wunderground v.1.15,2013-06-11 06:40:00,
2013-06-11 01:46:00,62.1,59.1,29.84,West,262,0.0,0.0,90,0.00,,,0.00,Wunderground v.1.15,2013-06-11 06:46:00,
2013-06-11 01:52:00,62.3,59.3,29.84,West,262,0.0,0.0,90,0.00,,,0.00,Wunderground v.1.15,2013-06-11 06:52:00,
2013-06-11 01:58:00,62.4,59.4,29.85,West,262,0.0,0.0,90,0.00,,,0.00,Wunderground v.1.15,2013-06-11 06:58:00,
2013-06-11 02:04:00,62.4,59.4,29.85,West,262,0.0,0.0,90,0.00,,,0.00,Wunderground v.1.15,2013-06-11 07:04:00,
2013-06-11 02:10:00,62.1,59.1,29.85,West,262,0.0,0.0,90,0.00,,,0.00,Wunderground v.1.15,2013-06-11 07:10:00,
2013-06-11 02:16:00,61.7,58.7,29.85,West,262,0.0,0.0,90,0.00,,,0.00,Wunderground v.1.15,2013-06-11 07:16:00,
2013-06-11 02:22:00,61.4,58.7,29.86,West,262,0.0,0.0,91,0.00,,,0.00,Wunderground v.1.15,2013-06-11 07:22:00,
2013-06-11 02:28:00,61.3,58.7,29.86,West,262,0.0,0.0,91,0.00,,,0.00,Wunderground v.1.15,2013-06-11 07:28:00,
2013-06-11 02:34:00,61.2,58.6,29.86,West,262,0.0,0.0,91,0.00,,,0.00,Wunderground v.1.15,2013-06-11 07:34:00,
2013-06-11 02:40:00,60.8,58.2,29.86,West,262,0.0,0.0,91,0.00,,,0.00,Wunderground v.1.15,2013-06-11 07:40:00,
2013-06-11 02:46:00,60.6,58.0,29.87,West,262,0.0,0.0,91,0.00,,,0.00,Wunderground v.1.15,2013-06-11 07:46:00,
2013-06-11 02:52:00,60.5,58.2,29.87,West,262,0.0,0.0,92,0.00,,,0.00,Wunderground v.1.15,2013-06-11 07:52:00,
2013-06-11 02:58:00,60.3,58.0,29.87,West,262,0.0,0.0,92,0.00,,,0.00,Wunderground v.1.15,2013-06-11 07:58:00,
2013-06-11 03:04:00,60.3,58.3,29.87,West,262,0.0,0.0,93,0.00,,,0.00,Wunderground v.1.15,2013-06-11 08:04:00,
2013-06-11 03:10:00,60.7,58.7,29.87,West,262,0.0,0.0,93,0.00,,,0.00,Wunderground v.1.15,2013-06-11 08:10:00,
2013-06-11 03:16:00,61.5,59.5,29.87,West,272,1.0,3.0,93,0.00,,,0.00,Wunderground v.1.15,2013-06-11 08:16:00,
2013-06-11 03:22:00,62.0,59.6,29.87,West,271,2.0,4.0,92,0.00,,,0.00,Wunderground v.1.15,2013-06-11 08:22:00,
2013-06-11 03:28:00,62.1,59.4,29.87,West,271,2.0,4.0,91,0.00,,,0.00,Wunderground v.1.15,2013-06-11 08:28:00,
2013-06-11 03:34:00,61.9,58.9,29.87,West,271,1.0,2.0,90,0.00,,,0.00,Wunderground v.1.15,2013-06-11 08:34:00,
2013-06-11 03:40:00,61.8,59.1,29.88,West,271,0.0,0.0,91,0.00,,,0.00,Wunderground v.1.15,2013-06-11 08:40:00,
2013-06-11 03:46:00,61.7,59.0,29.88,West,271,0.0,0.0,91,0.00,,,0.00,Wunderground v.1.15,2013-06-11 08:46:00,
2013-06-11 03:52:00,61.5,58.8,29.88,West,271,0.0,0.0,91,0.00,,,0.00,Wunderground v.1.15,2013-06-11 08:52:00,
2013-06-11 03:58:00,61.1,58.5,29.88,West,271,0.0,0.0,91,0.00,,,0.00,Wunderground v.1.15,2013-06-11 08:58:00,
2013-06-11 04:04:00,60.9,58.3,29.88,West,271,0.0,0.0,91,0.00,,,0.00,Wunderground v.1.15,2013-06-11 09:04:00,
2013-06-11 04:10:00,60.7,58.1,29.88,West,271,0.0,0.0,91,0.00,,,0.00,Wunderground v.1.15,2013-06-11 09:10:00,
2013-06-11 04:16:00,60.6,58.3,29.87,West,271,0.0,0.0,92,0.00,,,0.00,Wunderground v.1.15,2013-06-11 09:16:00,
2013-06-11 04:22:00,60.4,58.1,29.87,West,271,0.0,0.0,92,0.00,,,0.00,Wunderground v.1.15,2013-06-11 09:22:00,
2013-06-11 04:28:00,60.2,57.9,29.87,West,271,0.0,0.0,92,0.00,,,0.00,Wunderground v.1.15,2013-06-11 09:28:00,
2013-06-11 04:34:00,60.0,57.7,29.87,West,271,0.0,0.0,92,0.00,,,0.00,Wunderground v.1.15,2013-06-11 09:34:00,
2013-06-11 04:40:00,59.8,57.5,29.87,West,271,0.0,0.0,92,0.00,,,0.00,Wunderground v.1.15,2013-06-11 09:40:00,
2013-06-11 04:46:00,59.6,57.6,29.86,West,271,0.0,0.0,93,0.00,,,0.00,Wunderground v.1.15,2013-06-11 09:46:00,
2013-06-11 04:52:00,59.5,57.5,29.87,West,271,0.0,0.0,93,0.00,,,0.00,Wunderground v.1.15,2013-06-11 09:52:00,
2013-06-11 04:58:00,59.4,57.4,29.87,West,271,0.0,0.0,93,0.00,,,0.00,Wunderground v.1.15,2013-06-11 09:58:00,
2013-06-11 05:04:00,59.2,57.2,29.87,West,271,0.0,0.0,93,0.00,,,0.00,Wunderground v.1.15,2013-06-11 10:04:00,
2013-06-11 05:10:00,59.1,57.1,29.87,West,271,0.0,0.0,93,0.00,,,0.00,Wunderground v.1.15,2013-06-11 10:10:00,
2013-06-11 05:16:00,59.1,57.1,29.87,West,271,0.0,0.0,93,0.00,,,0.00,Wunderground v.1.15,2013-06-11 10:16:00,
2013-06-11 05:22:00,59.1,57.1,29.87,West,271,0.0,0.0,93,0.00,,,0.00,Wunderground v.1.15,2013-06-11 10:22:00,
2013-06-11 05:28:00,59.0,57.0,29.87,West,271,0.0,0.0,93,0.00,,,0.00,Wunderground v.1.15,2013-06-11 10:28:00,
2013-06-11 05:34:00,59.0,57.0,29.88,West,271,0.0,0.0,93,0.00,,,0.00,Wunderground v.1.15,2013-06-11 10:34:00,
2013-06-11 05:40:00,59.1,57.4,29.87,West,271,0.0,0.0,94,0.00,,,0.00,Wunderground v.1.15,2013-06-11 10:40:00,
2013-06-11 05:46:00,59.1,57.4,29.88,West,271,0.0,0.0,94,0.00,,,0.00,Wunderground v.1.15,2013-06-11 10:46:00,
2013-06-11 05:52:00,59.3,57.6,29.88,West,271,0.0,0.0,94,0.00,,,0.00,Wunderground v.1.15,2013-06-11 10:52:00,
2013-06-11 05:58:00,59.3,57.6,29.88,West,271,0.0,0.0,94,0.00,,,0.00,Wunderground v.1.15,2013-06-11 10:58:00,
2013-06-11 06:04:00,59.5,57.8,29.89,West,271,0.0,0.0,94,0.00,,,0.00,Wunderground v.1.15,2013-06-11 11:04:00,
2013-06-11 06:10:00,59.8,57.8,29.89,West,271,0.0,0.0,93,0.00,,,0.00,Wunderground v.1.15,2013-06-11 11:10:00,
2013-06-11 06:16:00,60.1,58.4,29.89,West,271,0.0,0.0,94,0.00,,,0.00,Wunderground v.1.15,2013-06-11 11:16:00,
2013-06-11 06:22:00,60.6,58.9,29.88,West,271,0.0,0.0,94,0.00,,,0.00,Wunderground v.1.15,2013-06-11 11:22:00,
2013-06-11 06:28:00,61.2,59.5,29.88,West,271,0.0,0.0,94,0.00,,,0.00,Wunderground v.1.15,2013-06-11 11:28:00,
2013-06-11 06:34:00,61.8,60.1,29.89,West,271,0.0,0.0,94,0.00,,,0.00,Wunderground v.1.15,2013-06-11 11:34:00,
2013-06-11 06:40:00,62.7,60.9,29.89,West,271,0.0,0.0,94,0.00,,,0.00,Wunderground v.1.15,2013-06-11 11:40:00,
2013-06-11 06:46:00,63.5,61.4,29.88,West,271,0.0,0.0,93,0.00,,,0.00,Wunderground v.1.15,2013-06-11 11:46:00,
2013-06-11 06:52:00,64.1,61.7,29.89,West,271,0.0,0.0,92,0.00,,,0.00,Wunderground v.1.15,2013-06-11 11:52:00,
2013-06-11 06:58:00,64.9,62.2,29.89,West,271,0.0,0.0,91,0.00,,,0.00,Wunderground v.1.15,2013-06-11 11:58:00,
2013-06-11 07:04:00,65.6,62.6,29.89,West,271,0.0,0.0,90,0.00,,,0.00,Wunderground v.1.15,2013-06-11 12:04:00,
2013-06-11 07:10:00,66.1,62.8,29.89,West,271,0.0,0.0,89,0.00,,,0.00,Wunderground v.1.15,2013-06-11 12:10:00,
2013-06-11 07:16:00,66.4,62.4,29.89,SW,234,0.0,0.0,87,0.00,,,0.00,Wunderground v.1.15,2013-06-11 12:16:00,
2013-06-11 07:22:00,66.8,62.8,29.89,SW,230,0.0,0.0,87,0.00,,,0.00,Wunderground v.1.15,2013-06-11 12:22:00,
2013-06-11 07:28:00,67.2,62.9,29.89,WSW,248,0.0,3.0,86,0.00,,,0.00,Wunderground v.1.15,2013-06-11 12:28:00,
2013-06-11 07:34:00,67.7,63.0,29.89,WSW,246,0.0,0.0,85,0.00,,,0.00,Wunderground v.1.15,2013-06-11 12:34:00,
2013-06-11 07:40:00,68.1,63.4,29.89,WSW,246,0.0,0.0,85,0.00,,,0.00,Wunderground v.1.15,2013-06-11 12:40:00,
2013-06-11 07:46:00,68.6,63.6,29.89,WSW,246,0.0,0.0,84,0.00,,,0.00,Wunderground v.1.15,2013-06-11 12:46:00,
2013-06-11 07:52:00,69.2,64.2,29.90,WSW,248,0.0,0.0,84,0.00,,,0.00,Wunderground v.1.15,2013-06-11 12:52:00,
2013-06-11 07:58:00,69.7,64.3,29.90,WSW,248,0.0,0.0,83,0.00,,,0.00,Wunderground v.1.15,2013-06-11 12:58:00,
2013-06-11 08:04:00,70.0,63.5,29.89,WSW,248,0.0,0.0,80,0.00,,,0.00,Wunderground v.1.15,2013-06-11 13:04:00,
2013-06-11 08:10:00,70.2,64.1,29.89,WSW,248,0.0,0.0,81,0.00,,,0.00,Wunderground v.1.15,2013-06-11 13:10:00,
2013-06-11 08:16:00,70.6,64.1,29.89,WSW,248,0.0,0.0,80,0.00,,,0.00,Wunderground v.1.15,2013-06-11 13:16:00,
2013-06-11 08:22:00,71.2,64.4,29.89,WSW,248,0.0,0.0,79,0.00,,,0.00,Wunderground v.1.15,2013-06-11 13:22:00,
2013-06-11 08:28:00,71.9,65.0,29.88,WSW,248,0.0,0.0,79,0.00,,,0.00,Wunderground v.1.15,2013-06-11 13:28:00,
2013-06-11 08:34:00,72.9,65.3,29.88,WSW,246,0.0,0.0,77,0.00,,,0.00,Wunderground v.1.15,2013-06-11 13:34:00,
2013-06-11 08:40:00,73.6,64.8,29.88,WSW,246,0.0,0.0,74,0.00,,,0.00,Wunderground v.1.15,2013-06-11 13:40:00,
2013-06-11 08:46:00,74.4,65.2,29.88,WSW,246,0.0,0.0,73,0.00,,,0.00,Wunderground v.1.15,2013-06-11 13:46:00,
2013-06-11 08:52:00,74.9,64.9,29.87,SSW,200,0.0,0.0,71,0.00,,,0.00,Wunderground v.1.15,2013-06-11 13:52:00,
2013-06-11 08:58:00,75.1,65.1,29.87,SSW,198,0.0,0.0,71,0.00,,,0.00,Wunderground v.1.15,2013-06-11 13:58:00,
2013-06-11 09:04:00,75.5,65.8,29.88,SSW,198,0.0,0.0,72,0.00,,,0.00,Wunderground v.1.15,2013-06-11 14:04:00,
2013-06-11 09:10:00,75.8,65.7,29.87,SSW,198,0.0,0.0,71,0.00,,,0.00,Wunderground v.1.15,2013-06-11 14:10:00,
2013-06-11 09:16:00,75.8,65.7,29.87,SSW,198,0.0,0.0,71,0.00,,,0.00,Wunderground v.1.15,2013-06-11 14:16:00,
2013-06-11 09:22:00,76.4,67.1,29.88,SSW,198,0.0,0.0,73,0.00,,,0.00,Wunderground v.1.15,2013-06-11 14:22:00,
2013-06-11 09:28:00,76.6,65.7,29.88,SSW,196,0.0,0.0,69,0.00,,,0.00,Wunderground v.1.15,2013-06-11 14:28:00,
2013-06-11 09:34:00,76.7,66.2,29.87,South,184,0.0,0.0,70,0.00,,,0.00,Wunderground v.1.15,2013-06-11 14:34:00,
2013-06-11 09:40:00,77.1,66.1,29.87,South,171,0.0,0.0,69,0.00,,,0.00,Wunderground v.1.15,2013-06-11 14:40:00,
2013-06-11 09:46:00,77.3,65.9,29.88,South,171,0.0,0.0,68,0.00,,,0.00,Wunderground v.1.15,2013-06-11 14:46:00,
2013-06-11 09:52:00,77.6,65.8,29.89,South,171,0.0,0.0,67,0.00,,,0.00,Wunderground v.1.15,2013-06-11 14:52:00,
2013-06-11 09:58:00,77.4,64.3,29.88,South,171,0.0,0.0,64,0.00,,,0.00,Wunderground v.1.15,2013-06-11 14:58:00,
2013-06-11 10:04:00,77.4,64.7,29.88,South,171,0.0,0.0,65,0.00,,,0.00,Wunderground v.1.15,2013-06-11 15:04:00,
2013-06-11 10:10:00,78.1,64.5,29.88,South,171,0.0,0.0,63,0.00,,,0.00,Wunderground v.1.15,2013-06-11 15:10:00,
2013-06-11 10:16:00,78.6,64.5,29.88,WSW,242,0.0,0.0,62,0.00,,,0.00,Wunderground v.1.15,2013-06-11 15:16:00,
2013-06-11 10:22:00,78.2,65.0,29.88,West,263,0.0,0.0,64,0.00,,,0.00,Wunderground v.1.15,2013-06-11 15:22:00,
2013-06-11 10:28:00,78.5,65.3,29.87,SW,219,0.0,0.0,64,0.00,,,0.00,Wunderground v.1.15,2013-06-11 15:28:00,
2013-06-11 10:34:00,79.0,64.4,29.88,SW,234,1.0,3.0,61,0.00,,,0.00,Wunderground v.1.15,2013-06-11 15:34:00,
2013-06-11 10:40:00,78.8,66.0,29.88,SW,224,2.0,4.0,65,0.00,,,0.00,Wunderground v.1.15,2013-06-11 15:40:00,
2013-06-11 10:46:00,78.9,64.3,29.87,SW,234,1.0,4.0,61,0.00,,,0.00,Wunderground v.1.15,2013-06-11 15:46:00,
2013-06-11 10:52:00,79.4,64.3,29.88,SW,227,0.0,3.0,60,0.00,,,0.00,Wunderground v.1.15,2013-06-11 15:52:00,
2013-06-11 10:58:00,79.6,65.4,29.88,South,187,1.0,3.0,62,0.00,,,0.00,Wunderground v.1.15,2013-06-11 15:58:00,
2013-06-11 11:04:00,80.0,65.8,29.87,SE,144,0.0,1.0,62,0.00,,,0.00,Wunderground v.1.15,2013-06-11 16:04:00,
2013-06-11 11:10:00,80.3,65.6,29.87,WSW,254,1.0,4.0,61,0.00,,,0.00,Wunderground v.1.15,2013-06-11 16:10:00,
2013-06-11 11:16:00,80.3,63.7,29.87,SSE,157,1.0,1.0,57,0.00,,,0.00,Wunderground v.1.15,2013-06-11 16:16:00,
2013-06-11 11:22:00,80.5,64.4,29.87,SSW,198,1.0,1.0,58,0.00,,,0.00,Wunderground v.1.15,2013-06-11 16:22:00,
2013-06-11 11:28:00,80.6,65.4,29.87,WSW,257,1.0,3.0,60,0.00,,,0.00,Wunderground v.1.15,2013-06-11 16:28:00,
2013-06-11 11:34:00,81.2,66.0,29.86,SSW,193,0.0,1.0,60,0.00,,,0.00,Wunderground v.1.15,2013-06-11 16:34:00,
2013-06-11 11:40:00,81.5,63.8,29.86,SSE,150,0.0,1.0,55,0.00,,,0.00,Wunderground v.1.15,2013-06-11 16:40:00,
2013-06-11 11:48:00,81.6,63.9,29.86,SSW,206,1.0,7.0,55,0.00,,,0.00,Wunderground v.1.15,2013-06-11 16:48:00,
2013-06-11 11:54:00,81.5,62.2,29.86,SW,217,2.0,2.0,52,0.00,,,0.00,Wunderground v.1.15,2013-06-11 16:54:00,
2013-06-11 12:00:00,81.7,63.4,29.85,SSW,205,1.0,1.0,54,0.00,,,0.00,Wunderground v.1.15,2013-06-11 17:00:00,
2013-06-11 12:06:00,82.0,64.2,29.85,SW,217,1.0,4.0,55,0.00,,,0.00,Wunderground v.1.15,2013-06-11 17:06:00,
2013-06-11 12:12:00,82.2,64.4,29.85,SSW,207,1.0,2.0,55,0.00,,,0.00,Wunderground v.1.15,2013-06-11 17:12:00,
2013-06-11 12:18:00,82.7,66.4,29.84,SSE,151,0.0,2.0,58,0.00,,,0.00,Wunderground v.1.15,2013-06-11 17:18:00,
2013-06-11 12:24:00,83.0,62.4,29.84,SSW,201,0.0,0.0,50,0.00,,,0.00,Wunderground v.1.15,2013-06-11 17:24:00,
2013-06-11 12:30:00,83.2,62.6,29.84,WSW,258,1.0,5.0,50,0.00,,,0.00,Wunderground v.1.15,2013-06-11 17:30:00,
2013-06-11 12:36:00,83.2,62.6,29.84,SW,225,2.0,5.0,50,0.00,,,0.00,Wunderground v.1.15,2013-06-11 17:36:00,
2013-06-11 12:42:00,82.5,61.4,29.84,WSW,253,2.0,6.0,49,0.00,,,0.00,Wunderground v.1.15,2013-06-11 17:42:00,
2013-06-11 12:48:00,82.1,61.6,29.84,SW,234,2.0,6.0,50,0.00,,,0.00,Wunderground v.1.15,2013-06-11 17:48:00,
2013-06-11 12:54:00,82.3,62.9,29.84,WSW,253,1.0,4.0,52,0.00,,,0.00,Wunderground v.1.15,2013-06-11 17:54:00,
2013-06-11 13:02:00,82.8,62.3,29.84,WSW,239,1.0,1.0,50,0.00,,,0.00,Wunderground v.1.15,2013-06-11 18:02:00,
2013-06-11 13:08:00,83.2,64.8,29.84,SSW,211,0.0,1.0,54,0.00,,,0.00,Wunderground v.1.15,2013-06-11 18:08:00,
2013-06-11 13:14:00,83.5,63.5,29.84,SSW,211,0.0,0.0,51,0.00,,,0.00,Wunderground v.1.15,2013-06-11 18:14:00,
2013-06-11 13:20:00,83.6,63.0,29.84,SSW,208,0.0,0.0,50,0.00,,,0.00,Wunderground v.1.15,2013-06-11 18:20:00,
2013-06-11 13:26:00,83.6,63.0,29.84,SW,221,0.0,0.0,50,0.00,,,0.00,Wunderground v.1.15,2013-06-11 18:26:00,
2013-06-11 13:32:00,84.4,61.4,29.83,South,186,0.0,0.0,46,0.00,,,0.00,Wunderground v.1.15,2013-06-11 18:32:00,
2013-06-11 13:38:00,84.9,61.8,29.84,SW,235,0.0,0.0,46,0.00,,,0.00,Wunderground v.1.15,2013-06-11 18:38:00,
2013-06-11 13:44:00,84.0,63.4,29.84,SW,221,0.0,0.0,50,0.00,,,0.00,Wunderground v.1.15,2013-06-11 18:44:00,
2013-06-11 13:50:00,83.2,63.7,29.84,SW,216,0.0,0.0,52,0.00,,,0.00,Wunderground v.1.15,2013-06-11 18:50:00,
2013-06-11 13:56:00,82.7,62.2,29.85,SW,216,0.0,0.0,50,0.00,,,0.00,Wunderground v.1.15,2013-06-11 18:56:00,
2013-06-11 14:02:00,82.3,64.0,29.85,SSW,200,0.0,1.0,54,0.00,,,0.00,Wunderground v.1.15,2013-06-11 19:02:00,
2013-06-11 14:08:00,81.8,63.5,29.85,South,175,0.0,1.0,54,0.00,,,0.00,Wunderground v.1.15,2013-06-11 19:08:00,
2013-06-11 14:14:00,82.2,64.9,29.84,SW,223,0.0,2.0,56,0.00,,,0.00,Wunderground v.1.15,2013-06-11 19:14:00,
2013-06-11 14:20:00,82.8,61.7,29.83,South,186,1.0,1.0,49,0.00,,,0.00,Wunderground v.1.15,2013-06-11 19:20:00,
2013-06-11 14:28:00,82.7,62.2,29.83,SW,227,1.0,3.0,50,0.00,,,0.00,Wunderground v.1.15,2013-06-11 19:28:00,
2013-06-11 14:34:00,83.1,63.1,29.83,SW,215,0.0,2.0,51,0.00,,,0.00,Wunderground v.1.15,2013-06-11 19:34:00,
2013-06-11 14:40:00,83.9,61.5,29.82,South,189,1.0,1.0,47,0.00,,,0.00,Wunderground v.1.15,2013-06-11 19:40:00,
2013-06-11 14:46:00,83.8,60.8,29.82,SSW,211,1.0,1.0,46,0.00,,,0.00,Wunderground v.1.15,2013-06-11 19:46:00,
2013-06-11 14:52:00,83.9,62.1,29.82,SSE,149,1.0,1.0,48,0.00,,,0.00,Wunderground v.1.15,2013-06-11 19:52:00,
2013-06-11 14:58:00,84.5,65.5,29.81,SSE,147,0.0,1.0,53,0.00,,,0.00,Wunderground v.1.15,2013-06-11 19:58:00,
2013-06-11 15:04:00,85.4,62.9,29.81,SSE,157,0.0,0.0,47,0.00,,,0.00,Wunderground v.1.15,2013-06-11 20:04:00,
2013-06-11 15:10:00,85.7,61.3,29.80,SW,225,0.0,0.0,44,0.00,,,0.00,Wunderground v.1.15,2013-06-11 20:10:00,
2013-06-11 15:16:00,85.8,63.8,29.80,ESE,107,0.0,5.0,48,0.00,,,0.00,Wunderground v.1.15,2013-06-11 20:16:00,
2013-06-11 15:22:00,86.1,62.9,29.79,ESE,122,0.0,1.0,46,0.00,,,0.00,Wunderground v.1.15,2013-06-11 20:22:00,
2013-06-11 15:28:00,85.9,62.7,29.79,SE,145,1.0,1.0,46,0.00,,,0.00,Wunderground v.1.15,2013-06-11 20:28:00,
2013-06-11 15:34:00,86.0,62.2,29.78,SE,142,0.0,1.0,45,0.00,,,0.00,Wunderground v.1.15,2013-06-11 20:34:00,
2013-06-11 15:40:00,86.4,61.9,29.78,SE,135,0.0,0.0,44,0.00,,,0.00,Wunderground v.1.15,2013-06-11 20:40:00,
2013-06-11 15:46:00,86.8,64.8,29.79,SE,141,0.0,4.0,48,0.00,,,0.00,Wunderground v.1.15,2013-06-11 20:46:00,
2013-06-11 15:52:00,87.2,64.5,29.80,ESE,120,0.0,0.0,47,0.00,,,0.00,Wunderground v.1.15,2013-06-11 20:52:00,
2013-06-11 15:58:00,87.2,63.3,29.81,East,99,1.0,2.0,45,0.00,,,0.00,Wunderground v.1.15,2013-06-11 20:58:00,
2013-06-11 16:04:00,87.2,63.3,29.80,SW,220,0.0,1.0,45,0.00,,,0.00,Wunderground v.1.15,2013-06-11 21:04:00,
2013-06-11 16:10:00,87.0,64.3,29.81,SW,227,0.0,0.0,47,0.00,,,0.00,Wunderground v.1.15,2013-06-11 21:10:00,
2013-06-11 16:16:00,87.5,64.2,29.81,SW,227,0.0,0.0,46,0.00,,,0.00,Wunderground v.1.15,2013-06-11 21:16:00,
2013-06-11 16:22:00,87.9,64.5,29.80,SW,227,0.0,0.0,46,0.00,,,0.00,Wunderground v.1.15,2013-06-11 21:22:00,
2013-06-11 16:28:00,87.7,63.1,29.80,ESE,107,0.0,0.0,44,0.00,,,0.00,Wunderground v.1.15,2013-06-11 21:28:00,
2013-06-11 16:34:00,87.3,62.7,29.80,ENE,74,2.0,7.0,44,0.00,,,0.00,Wunderground v.1.15,2013-06-11 21:34:00,
2013-06-11 16:40:00,86.9,63.0,29.79,East,96,6.0,6.0,45,0.00,,,0.00,Wunderground v.1.15,2013-06-11 21:40:00,
2013-06-11 16:46:00,86.6,63.4,29.79,East,82,5.0,6.0,46,0.00,,,0.00,Wunderground v.1.15,2013-06-11 21:46:00,
2013-06-11 16:52:00,86.5,63.9,29.80,East,84,2.0,3.0,47,0.00,,,0.00,Wunderground v.1.15,2013-06-11 21:52:00,
2013-06-11 16:58:00,86.4,63.2,29.80,ENE,57,1.0,3.0,46,0.00,,,0.00,Wunderground v.1.15,2013-06-11 21:58:00,
2013-06-11 17:04:00,86.3,63.7,29.80,ENE,78,2.0,5.0,47,0.00,,,0.00,Wunderground v.1.15,2013-06-11 22:04:00,
2013-06-11 17:10:00,86.3,64.3,29.80,East,90,4.0,4.0,48,0.00,,,0.00,Wunderground v.1.15,2013-06-11 22:10:00,
2013-06-11 17:16:00,86.0,65.2,29.80,East,84,2.0,5.0,50,0.00,,,0.00,Wunderground v.1.15,2013-06-11 22:16:00,
2013-06-11 17:22:00,85.7,65.5,29.80,East,84,0.0,1.0,51,0.00,,,0.00,Wunderground v.1.15,2013-06-11 22:22:00,
2013-06-11 17:28:00,85.4,66.9,29.80,East,84,0.0,1.0,54,0.00,,,0.00,Wunderground v.1.15,2013-06-11 22:28:00,
2013-06-11 17:34:00,85.5,68.5,29.79,SW,218,0.0,0.0,57,0.00,,,0.00,Wunderground v.1.15,2013-06-11 22:34:00,
2013-06-11 17:40:00,86.0,68.5,29.78,SW,217,2.0,5.0,56,0.00,,,0.00,Wunderground v.1.15,2013-06-11 22:40:00,
2013-06-11 17:46:00,86.2,68.7,29.78,SW,223,4.0,6.0,56,0.00,,,0.00,Wunderground v.1.15,2013-06-11 22:46:00,
2013-06-11 17:52:00,86.4,69.4,29.78,SW,225,5.0,6.0,57,0.00,,,0.00,Wunderground v.1.15,2013-06-11 22:52:00,
2013-06-11 17:58:00,86.2,67.6,29.77,SW,228,4.0,6.0,54,0.00,,,0.00,Wunderground v.1.15,2013-06-11 22:58:00,
2013-06-11 18:04:00,85.0,68.1,29.77,SSW,213,4.0,4.0,57,0.00,,,0.00,Wunderground v.1.15,2013-06-11 23:04:00,
2013-06-11 18:10:00,84.3,68.9,29.77,SW,220,4.0,5.0,60,0.00,,,0.00,Wunderground v.1.15,2013-06-11 23:10:00,
2013-06-11 18:18:00,84.2,68.3,29.76,SW,218,4.0,7.0,59,0.00,,,0.00,Wunderground v.1.15,2013-06-11 23:18:00,
2013-06-11 18:24:00,84.3,68.4,29.76,SW,223,4.0,5.0,59,0.00,,,0.00,Wunderground v.1.15,2013-06-11 23:24:00,
2013-06-11 18:30:00,83.9,68.5,29.76,SW,224,4.0,5.0,60,0.00,,,0.00,Wunderground v.1.15,2013-06-11 23:30:00,
2013-06-11 18:36:00,83.6,68.7,29.76,SW,232,4.0,4.0,61,0.00,,,0.00,Wunderground v.1.15,2013-06-11 23:36:00,
2013-06-11 18:42:00,83.5,69.1,29.77,SW,216,4.0,8.0,62,0.00,,,0.00,Wunderground v.1.15,2013-06-11 23:42:00,
2013-06-11 18:48:00,83.9,69.0,29.77,SW,235,4.0,8.0,61,0.00,,,0.00,Wunderground v.1.15,2013-06-11 23:48:00,
2013-06-11 18:54:00,84.4,69.5,29.77,SW,227,5.0,9.0,61,0.00,,,0.00,Wunderground v.1.15,2013-06-11 23:54:00,
2013-06-11 19:02:00,84.5,69.1,29.76,SW,214,4.0,4.0,60,0.00,,,0.00,Wunderground v.1.15,2013-06-12 00:02:00,
2013-06-11 19:08:00,84.2,69.3,29.76,SSW,206,4.0,5.0,61,0.00,,,0.00,Wunderground v.1.15,2013-06-12 00:08:00,
2013-06-11 19:14:00,84.0,69.1,29.75,SW,218,4.0,4.0,61,0.00,,,0.00,Wunderground v.1.15,2013-06-12 00:14:00,
2013-06-11 19:20:00,83.8,69.4,29.75,SW,223,4.0,5.0,62,0.00,,,0.00,Wunderground v.1.15,2013-06-12 00:20:00,
2013-06-11 19:28:00,83.4,68.5,29.75,SW,219,5.0,8.0,61,0.00,,,0.00,Wunderground v.1.15,2013-06-12 00:28:00,
2013-06-11 19:34:00,83.1,68.7,29.75,SW,226,4.0,5.0,62,0.00,,,0.00,Wunderground v.1.15,2013-06-12 00:34:00,
2013-06-11 19:40:00,82.8,69.4,29.75,SW,220,3.0,5.0,64,0.00,,,0.00,Wunderground v.1.15,2013-06-12 00:40:00,
2013-06-11 19:46:00,82.5,69.1,29.74,SW,226,3.0,5.0,64,0.00,,,0.00,Wunderground v.1.15,2013-06-12 00:46:00,
2013-06-11 19:52:00,82.1,69.2,29.75,SW,217,2.0,2.0,65,0.00,,,0.00,Wunderground v.1.15,2013-06-12 00:52:00,
2013-06-11 19:58:00,81.8,69.3,29.75,SW,224,0.0,2.0,66,0.00,,,0.00,Wunderground v.1.15,2013-06-12 00:58:00,
2013-06-11 20:04:00,81.3,69.3,29.75,SW,224,0.0,0.0,67,0.00,,,0.00,Wunderground v.1.15,2013-06-12 01:04:00,
2013-06-11 20:10:00,80.7,69.2,29.76,SW,224,0.0,0.0,68,0.00,,,0.00,Wunderground v.1.15,2013-06-12 01:10:00,
2013-06-11 20:16:00,80.3,69.2,29.76,SW,224,0.0,0.0,69,0.00,,,0.00,Wunderground v.1.15,2013-06-12 01:16:00,
2013-06-11 20:22:00,80.2,69.1,29.76,SW,224,0.0,0.0,69,0.00,,,0.00,Wunderground v.1.15,2013-06-12 01:22:00,
2013-06-11 20:28:00,80.1,69.0,29.77,SW,224,0.0,0.0,69,0.00,,,0.00,Wunderground v.1.15,2013-06-12 01:28:00,
2013-06-11 20:34:00,80.1,69.0,29.77,SW,224,0.0,0.0,69,0.00,,,0.00,Wunderground v.1.15,2013-06-12 01:34:00,
2013-06-11 20:40:00,80.1,69.0,29.78,SW,224,0.0,0.0,69,0.00,,,0.00,Wunderground v.1.15,2013-06-12 01:40:00,
2013-06-11 20:46:00,79.9,68.8,29.78,SW,224,0.0,0.0,69,0.00,,,0.00,Wunderground v.1.15,2013-06-12 01:46:00,
2013-06-11 20:52:00,79.8,69.1,29.79,SW,224,0.0,0.0,70,0.00,,,0.00,Wunderground v.1.15,2013-06-12 01:52:00,
2013-06-11 20:58:00,79.5,68.9,29.80,SW,224,0.0,0.0,70,0.00,,,0.00,Wunderground v.1.15,2013-06-12 01:58:00,
2013-06-11 21:04:00,79.1,68.9,29.81,NNW,340,0.0,0.0,71,0.00,,,0.00,Wunderground v.1.15,2013-06-12 02:04:00,
2013-06-11 21:10:00,79.0,68.8,29.80,NNW,342,0.0,0.0,71,0.00,,,0.00,Wunderground v.1.15,2013-06-12 02:10:00,
2013-06-11 21:16:00,78.9,68.7,29.80,NNW,342,0.0,0.0,71,0.00,,,0.00,Wunderground v.1.15,2013-06-12 02:16:00,
2013-06-11 21:22:00,78.7,68.5,29.80,NNW,342,0.0,0.0,71,0.00,,,0.00,Wunderground v.1.15,2013-06-12 02:22:00,
2013-06-11 21:28:00,78.5,68.7,29.80,NNW,342,0.0,0.0,72,0.00,,,0.00,Wunderground v.1.15,2013-06-12 02:28:00,
2013-06-11 21:34:00,78.1,68.7,29.80,NNW,342,0.0,0.0,73,0.00,,,0.00,Wunderground v.1.15,2013-06-12 02:34:00,
2013-06-11 21:40:00,77.4,68.9,29.79,NNW,342,0.0,0.0,75,0.00,,,0.00,Wunderground v.1.15,2013-06-12 02:40:00,
2013-06-11 21:46:00,76.7,68.6,29.79,NNW,342,0.0,0.0,76,0.00,,,0.00,Wunderground v.1.15,2013-06-12 02:46:00,
2013-06-11 21:52:00,76.1,68.0,29.79,NNW,342,0.0,0.0,76,0.00,,,0.00,Wunderground v.1.15,2013-06-12 02:52:00,
2013-06-11 21:58:00,75.6,68.3,29.79,NNW,342,0.0,0.0,78,0.00,,,0.00,Wunderground v.1.15,2013-06-12 02:58:00,
2013-06-11 22:04:00,75.2,67.9,29.79,NNW,342,0.0,0.0,78,0.00,,,0.00,Wunderground v.1.15,2013-06-12 03:04:00,
2013-06-11 22:10:00,74.8,68.2,29.78,NNW,342,0.0,0.0,80,0.00,,,0.00,Wunderground v.1.15,2013-06-12 03:10:00,
2013-06-11 22:16:00,74.3,68.1,29.78,NNW,342,0.0,0.0,81,0.00,,,0.00,Wunderground v.1.15,2013-06-12 03:16:00,
2013-06-11 22:22:00,73.9,68.1,29.78,NNW,342,0.0,0.0,82,0.00,,,0.00,Wunderground v.1.15,2013-06-12 03:22:00,
2013-06-11 22:28:00,73.3,67.5,29.78,NNW,342,0.0,0.0,82,0.00,,,0.00,Wunderground v.1.15,2013-06-12 03:28:00,
2013-06-11 22:34:00,73.1,68.0,29.78,NNW,342,0.0,0.0,84,0.00,,,0.00,Wunderground v.1.15,2013-06-12 03:34:00,
2013-06-11 22:40:00,73.3,67.8,29.78,NNW,342,0.0,0.0,83,0.00,,,0.00,Wunderground v.1.15,2013-06-12 03:40:00,
2013-06-11 22:46:00,73.4,67.9,29.78,NNW,342,0.0,0.0,83,0.00,,,0.00,Wunderground v.1.15,2013-06-12 03:46:00,
2013-06-11 22:52:00,73.5,68.0,29.78,NNW,342,0.0,0.0,83,0.00,,,0.00,Wunderground v.1.15,2013-06-12 03:52:00,
2013-06-11 22:58:00,73.3,67.8,29.78,NNW,342,0.0,0.0,83,0.00,,,0.00,Wunderground v.1.15,2013-06-12 03:58:00,
2013-06-11 23:02:00,73.2,68.1,29.79,NNW,342,0.0,0.0,84,0.00,,,0.00,Wunderground v.1.15,2013-06-12 04:02:00,
2013-06-11 23:08:00,73.0,67.9,29.78,NNW,342,0.0,0.0,84,0.00,,,0.00,Wunderground v.1.15,2013-06-12 04:08:00,
2013-06-11 23:10:00,73.0,67.9,29.79,NNW,342,0.0,0.0,84,0.00,,,0.00,Wunderground v.1.15,2013-06-12 04:10:00,
2013-06-11 23:14:00,72.7,67.6,29.79,NNW,342,0.0,0.0,84,0.00,,,0.00,Wunderground v.1.15,2013-06-12 04:14:00,
2013-06-11 23:20:00,72.4,67.6,29.79,NNW,342,0.0,0.0,85,0.00,,,0.00,Wunderground v.1.15,2013-06-12 04:20:00,
2013-06-11 23:22:00,72.3,67.5,29.79,NNW,342,0.0,0.0,85,0.00,,,0.00,Wunderground v.1.15,2013-06-12 04:22:00,
2013-06-11 23:28:00,72.0,67.2,29.78,NNW,342,0.0,0.0,85,0.00,,,0.00,Wunderground v.1.15,2013-06-12 04:28:00,
2013-06-11 23:34:00,71.7,67.3,29.78,NNW,342,0.0,0.0,86,0.00,,,0.00,Wunderground v.1.15,2013-06-12 04:34:00,
2013-06-11 23:40:00,71.6,67.9,29.77,NNW,331,0.0,0.0,88,0.00,,,0.00,Wunderground v.1.15,2013-06-12 04:40:00,
2013-06-11 23:46:00,71.8,68.1,29.77,NNW,331,0.0,0.0,88,0.00,,,0.00,Wunderground v.1.15,2013-06-12 04:46:00,
2013-06-11 23:52:00,72.2,68.1,29.77,NNW,331,0.0,0.0,87,0.00,,,0.00,Wunderground v.1.15,2013-06-12 04:52:00,
2013-06-11 23:58:00,72.6,68.5,29.78,NNW,330,0.0,0.0,87,0.00,,,0.00,Wunderground v.1.15,2013-06-12 04:58:00,